createdAt,value
2019-05-06T00:01:34.304Z,9.40
2019-05-06T00:04:04.851Z,9.47
2019-05-06T00:06:34.774Z,10.03
2019-05-06T00:09:05.254Z,10.73
2019-05-06T00:11:36.689Z,8.73
2019-05-06T00:14:06.048Z,9.50
2019-05-06T00:16:35.166Z,8.53
2019-05-06T00:19:05.030Z,10.10
2019-05-06T00:21:35.525Z,12.43
2019-05-06T00:24:05.388Z,12.23
2019-05-06T00:26:57.219Z,9.93
2019-05-06T00:29:27.184Z,9.40
2019-05-06T00:31:56.223Z,8.60
2019-05-06T00:34:25.434Z,8.80
2019-05-06T00:36:54.674Z,10.03
2019-05-06T00:39:30.326Z,10.00
2019-05-06T00:42:04.844Z,8.60
2019-05-06T00:44:34.645Z,9.20
2019-05-06T00:47:04.392Z,9.10
2019-05-06T00:49:34.455Z,9.57
2019-05-06T00:52:04.287Z,10.70
2019-05-06T00:54:34.150Z,8.60
2019-05-06T00:57:05.313Z,9.27
2019-05-06T00:59:34.691Z,9.30
2019-05-06T01:02:04.648Z,8.00
2019-05-06T01:04:34.060Z,8.20
2019-05-06T01:07:03.985Z,9.30
2019-05-06T01:09:34.506Z,8.90
2019-05-06T01:12:05.191Z,8.03
2019-05-06T01:14:38.968Z,9.00
2019-05-06T01:17:08.233Z,8.40
2019-05-06T01:19:37.379Z,9.60
2019-05-06T01:22:06.590Z,9.70
2019-05-06T01:24:35.913Z,8.40
2019-05-06T01:27:05.047Z,8.60
2019-05-06T01:29:34.887Z,8.27
2019-05-06T01:32:04.107Z,8.70
2019-05-06T01:34:33.897Z,9.17
2019-05-06T01:37:03.757Z,8.00
2019-05-06T01:39:53.716Z,9.27
2019-05-06T01:42:34.446Z,8.23
2019-05-06T01:45:04.731Z,7.97
2019-05-06T01:47:34.577Z,9.50
2019-05-06T01:50:04.656Z,8.93
2019-05-06T01:52:34.462Z,7.50
2019-05-06T01:55:04.811Z,9.13
2019-05-06T01:57:33.988Z,8.00
2019-05-06T02:00:04.836Z,9.43
2019-05-06T02:02:34.503Z,7.97
2019-05-06T02:05:04.748Z,8.03
2019-05-06T02:07:34.919Z,7.90
2019-05-06T02:10:04.304Z,8.33
2019-05-06T02:12:34.245Z,8.97
2019-05-06T02:15:05.240Z,8.70
2019-05-06T02:17:34.610Z,8.30
2019-05-06T02:20:04.261Z,8.10
2019-05-06T02:22:58.197Z,7.53
2019-05-06T02:25:53.981Z,8.27
2019-05-06T02:28:23.625Z,7.37
2019-05-06T02:31:21.321Z,8.20
2019-05-06T02:34:09.536Z,7.57
2019-05-06T02:36:58.824Z,8.43
2019-05-06T02:39:28.137Z,7.97
2019-05-06T02:41:57.343Z,8.30
2019-05-06T02:44:26.871Z,7.50
2019-05-06T02:47:04.950Z,9.27
2019-05-06T02:49:38.787Z,8.60
2019-05-06T02:52:07.889Z,8.00
2019-05-06T02:54:37.109Z,7.63
2019-05-06T02:57:06.302Z,8.23
2019-05-06T02:59:35.706Z,8.40
2019-05-06T03:02:04.899Z,8.87
2019-05-06T03:04:34.021Z,7.57
2019-05-06T03:07:03.840Z,8.40
2019-05-06T03:09:34.116Z,8.63
2019-05-06T03:12:04.033Z,9.53
2019-05-06T03:14:34.541Z,7.93
2019-05-06T03:17:04.098Z,7.90
2019-05-06T03:19:34.968Z,8.90
2019-05-06T03:22:17.758Z,8.87
2019-05-06T03:25:06.327Z,7.57
2019-05-06T03:27:32.959Z,8.30
2019-05-06T03:30:04.108Z,8.17
2019-05-06T03:32:41.138Z,8.37
2019-05-06T03:35:25.271Z,7.80
2019-05-06T03:37:35.485Z,9.50
2019-05-06T03:40:04.922Z,8.37
2019-05-06T03:42:34.302Z,9.00
2019-05-06T03:45:09.368Z,8.20
2019-05-06T03:47:46.417Z,8.30
2019-05-06T03:50:15.795Z,8.60
2019-05-06T03:52:44.921Z,7.77
2019-05-06T03:55:14.102Z,7.87
2019-05-06T03:57:43.188Z,8.97
2019-05-06T04:00:16.103Z,8.10
2019-05-06T04:02:45.624Z,8.10
2019-05-06T04:05:14.904Z,8.03
2019-05-06T04:07:45.969Z,7.43
2019-05-06T04:10:15.606Z,8.83
2019-05-06T04:12:45.668Z,7.80
2019-05-06T04:15:15.510Z,8.43
2019-05-06T04:18:04.063Z,8.90
2019-05-06T04:20:53.323Z,10.47
2019-05-06T04:23:43.486Z,9.17
2019-05-06T04:26:16.426Z,8.73
2019-05-06T04:28:45.673Z,8.53
2019-05-06T04:31:14.819Z,8.90
2019-05-06T04:33:55.430Z,8.77
2019-05-06T04:36:14.700Z,8.73
2019-05-06T04:38:44.963Z,8.80
2019-05-06T04:41:14.530Z,8.90
2019-05-06T04:43:44.049Z,8.87
2019-05-06T04:46:16.819Z,8.67
2019-05-06T04:48:44.902Z,9.03
2019-05-06T04:51:14.144Z,9.80
2019-05-06T04:53:44.250Z,8.10
2019-05-06T04:56:14.618Z,8.70
2019-05-06T04:58:43.828Z,8.70
2019-05-06T05:01:15.688Z,9.30
2019-05-06T05:03:43.875Z,8.87
2019-05-06T05:06:13.644Z,9.37
2019-05-06T05:08:42.851Z,9.10
2019-05-06T05:11:30.003Z,9.43
2019-05-06T05:14:25.039Z,8.93
2019-05-06T05:17:06.229Z,8.90
2019-05-06T05:19:35.249Z,10.23
2019-05-06T05:22:07.386Z,9.97
2019-05-06T05:24:37.254Z,9.97
2019-05-06T05:27:07.534Z,9.80
2019-05-06T05:29:36.829Z,9.13
2019-05-06T05:32:06.083Z,9.40
2019-05-06T05:34:39.764Z,9.50
2019-05-06T05:37:06.388Z,8.80
2019-05-06T05:39:35.587Z,10.93
2019-05-06T05:42:14.211Z,10.53
2019-05-06T05:44:43.733Z,10.33
2019-05-06T05:47:12.997Z,8.80
2019-05-06T05:50:02.763Z,9.70
2019-05-06T05:52:32.870Z,9.60
2019-05-06T05:55:04.427Z,9.80
2019-05-06T05:57:34.145Z,9.73
2019-05-06T06:00:04.096Z,10.53
2019-05-06T06:02:33.702Z,11.17
2019-05-06T06:05:02.823Z,11.57
2019-05-06T06:07:32.776Z,10.73
2019-05-06T06:10:30.457Z,11.73
2019-05-06T06:13:02.162Z,13.53
2019-05-06T06:15:42.444Z,12.23
2019-05-06T06:18:28.707Z,11.70
2019-05-06T06:21:27.897Z,14.70
2019-05-06T06:23:57.399Z,14.53
2019-05-06T06:26:26.543Z,12.37
2019-05-06T06:28:55.628Z,12.87
2019-05-06T06:31:33.996Z,14.40
2019-05-06T06:34:09.950Z,13.17
2019-05-06T06:36:48.776Z,13.43
2019-05-06T06:39:39.647Z,14.37
2019-05-06T06:42:08.739Z,14.03
2019-05-06T06:44:37.817Z,13.90
2019-05-06T06:47:06.824Z,14.33
2019-05-06T06:49:36.201Z,14.20
2019-05-06T06:52:10.954Z,13.40
2019-05-06T06:54:36.106Z,14.50
2019-05-06T06:57:24.176Z,15.00
2019-05-06T07:00:03.924Z,15.40
2019-05-06T07:02:48.204Z,15.03
2019-05-06T07:05:35.221Z,15.77
2019-05-06T07:08:04.553Z,14.77
2019-05-06T07:10:46.848Z,15.50
2019-05-06T07:13:17.178Z,15.83
2019-05-06T07:15:46.366Z,15.20
2019-05-06T07:18:15.490Z,14.87
2019-05-06T07:20:58.438Z,15.00
2019-05-06T07:23:28.018Z,16.53
2019-05-06T07:25:57.107Z,14.80
2019-05-06T07:28:26.548Z,14.40
2019-05-06T07:30:56.191Z,14.70
2019-05-06T07:33:25.506Z,13.83
2019-05-06T07:35:54.688Z,14.50
2019-05-06T07:38:23.943Z,12.87
2019-05-06T07:41:06.240Z,14.10
2019-05-06T07:43:48.672Z,13.33
2019-05-06T07:46:37.547Z,14.20
2019-05-06T07:49:06.593Z,13.90
2019-05-06T07:51:35.887Z,15.57
2019-05-06T07:54:05.118Z,14.97
2019-05-06T07:56:34.228Z,12.77
2019-05-06T07:59:07.718Z,13.27
2019-05-06T08:01:38.651Z,13.00
2019-05-06T08:04:08.133Z,12.73
2019-05-06T08:06:37.213Z,13.50
2019-05-06T08:09:08.793Z,12.73
2019-05-06T08:11:37.993Z,12.30
2019-05-06T08:14:07.687Z,12.40
2019-05-06T08:16:42.486Z,11.77
2019-05-06T08:19:12.069Z,13.10
2019-05-06T08:21:42.884Z,13.50
2019-05-06T08:24:12.081Z,13.03
2019-05-06T08:26:42.821Z,12.40
2019-05-06T08:29:15.502Z,12.30
2019-05-06T08:31:43.204Z,11.90
2019-05-06T08:34:12.415Z,13.53
2019-05-06T08:36:57.656Z,12.50
2019-05-06T08:39:26.699Z,14.33
2019-05-06T08:41:55.768Z,11.90
2019-05-06T08:44:24.860Z,11.60
2019-05-06T08:46:53.969Z,11.80
2019-05-06T08:49:23.073Z,12.40
2019-05-06T08:51:59.028Z,12.27
2019-05-06T08:54:34.184Z,12.20
2019-05-06T08:57:03.495Z,13.27
2019-05-06T08:59:32.600Z,12.60
2019-05-06T09:02:03.214Z,13.97
2019-05-06T09:04:32.397Z,11.87
2019-05-06T09:07:02.914Z,10.40
2019-05-06T09:09:32.773Z,11.07
2019-05-06T09:12:02.633Z,10.43
2019-05-06T09:14:32.660Z,10.33
2019-05-06T09:17:02.810Z,10.47
2019-05-06T09:19:33.129Z,9.90
2019-05-06T09:22:02.671Z,9.20
2019-05-06T09:24:32.235Z,10.70
2019-05-06T09:27:12.456Z,8.40
2019-05-06T09:29:52.121Z,9.80
2019-05-06T09:32:35.925Z,9.90
2019-05-06T09:35:06.482Z,9.50
2019-05-06T09:37:35.728Z,11.67
2019-05-06T09:40:05.374Z,10.00
2019-05-06T09:42:34.584Z,9.63
2019-05-06T09:45:03.808Z,9.83
2019-05-06T09:47:43.125Z,10.87
2019-05-06T09:50:15.165Z,9.70
2019-05-06T09:52:44.249Z,10.03
2019-05-06T09:55:44.756Z,10.10
2019-05-06T09:58:13.837Z,10.33
2019-05-06T10:00:45.470Z,9.70
2019-05-06T10:03:14.879Z,10.13
2019-05-06T10:05:44.027Z,10.00
2019-05-06T10:08:13.270Z,10.87
2019-05-06T10:10:56.023Z,10.80
2019-05-06T10:13:13.657Z,10.73
2019-05-06T10:15:43.041Z,9.73
2019-05-06T10:18:13.126Z,10.07
2019-05-06T10:20:45.237Z,11.13
2019-05-06T10:23:15.405Z,10.33
2019-05-06T10:25:45.730Z,10.20
2019-05-06T10:28:44.621Z,11.10
2019-05-06T10:31:15.943Z,9.87
2019-05-06T10:34:03.182Z,9.50
2019-05-06T10:36:45.184Z,10.20
2019-05-06T10:39:15.622Z,10.30
2019-05-06T10:41:47.353Z,9.60
2019-05-06T10:44:42.873Z,8.20
2019-05-06T10:47:12.254Z,10.20
2019-05-06T10:49:42.051Z,8.37
2019-05-06T10:52:17.560Z,9.73
2019-05-06T10:54:46.657Z,8.20
2019-05-06T10:57:29.727Z,7.47
2019-05-06T10:59:58.881Z,7.40
2019-05-06T11:02:56.254Z,7.43
2019-05-06T11:05:25.417Z,7.03
2019-05-06T11:07:54.615Z,8.10
2019-05-06T11:10:29.916Z,8.17
2019-05-06T11:12:54.685Z,6.67
2019-05-06T11:15:23.825Z,7.20
2019-05-06T11:17:52.871Z,7.13
2019-05-06T11:20:24.189Z,6.77
2019-05-06T11:22:52.955Z,7.20
2019-05-06T11:25:23.054Z,8.73
2019-05-06T11:27:52.868Z,6.70
2019-05-06T11:30:42.376Z,7.10
2019-05-06T11:33:28.904Z,6.03
2019-05-06T11:36:01.003Z,7.80
2019-05-06T11:38:32.128Z,8.37
2019-05-06T11:41:00.964Z,6.00
2019-05-06T11:43:32.563Z,7.17
2019-05-06T11:46:01.891Z,6.33
2019-05-06T11:48:32.816Z,6.10
2019-05-06T11:51:03.945Z,6.47
2019-05-06T11:53:33.623Z,6.00
2019-05-06T11:56:02.698Z,6.27
2019-05-06T11:58:53.141Z,5.27
2019-05-06T12:01:44.261Z,6.43
2019-05-06T12:04:13.874Z,6.27
2019-05-06T12:06:43.356Z,5.67
2019-05-06T12:09:16.516Z,5.83
2019-05-06T12:11:43.447Z,4.90
2019-05-06T12:14:13.091Z,5.87
2019-05-06T12:16:42.161Z,4.87
2019-05-06T12:19:13.104Z,5.80
2019-05-06T12:21:43.075Z,5.97
2019-05-06T12:24:12.358Z,5.40
2019-05-06T12:26:42.857Z,5.70
2019-05-06T12:29:12.696Z,5.57
2019-05-06T12:31:42.499Z,5.50
2019-05-06T12:34:14.504Z,5.80
2019-05-06T12:36:42.887Z,5.87
2019-05-06T12:39:26.138Z,5.97
2019-05-06T12:42:14.306Z,6.20
2019-05-06T12:45:03.534Z,6.50
2019-05-06T12:47:54.779Z,5.80
2019-05-06T12:50:23.957Z,5.90
2019-05-06T12:52:53.326Z,5.67
2019-05-06T12:55:25.315Z,5.40
2019-05-06T12:57:54.601Z,6.47
2019-05-06T13:00:24.801Z,6.00
2019-05-06T13:02:53.913Z,6.53
2019-05-06T13:05:23.301Z,5.10
2019-05-06T13:07:52.832Z,5.43
2019-05-06T13:10:23.300Z,4.80
2019-05-06T13:12:57.961Z,4.43
2019-05-06T13:15:27.049Z,4.23
2019-05-06T13:17:56.128Z,3.73
2019-05-06T13:20:25.477Z,4.70
2019-05-06T13:23:08.595Z,4.70
2019-05-06T13:25:35.690Z,4.40
2019-05-06T13:28:06.617Z,5.00
2019-05-06T13:30:35.867Z,4.60
2019-05-06T13:33:14.075Z,5.60
2019-05-06T13:35:43.276Z,5.77
2019-05-06T13:38:12.564Z,5.37
2019-05-06T13:40:54.062Z,5.40
2019-05-06T13:43:43.358Z,5.63
2019-05-06T13:46:18.115Z,5.70
2019-05-06T13:48:57.433Z,5.77
2019-05-06T13:51:28.225Z,5.90
2019-05-06T13:53:57.505Z,5.67
2019-05-06T13:56:26.606Z,5.00
2019-05-06T13:58:55.894Z,5.40
2019-05-06T14:01:26.893Z,5.10
2019-05-06T14:03:56.122Z,5.40
2019-05-06T14:06:25.414Z,5.90
2019-05-06T14:08:54.669Z,6.10
2019-05-06T14:11:23.936Z,6.30
2019-05-06T14:13:53.184Z,6.83
2019-05-06T14:16:24.495Z,5.70
2019-05-06T14:18:53.506Z,6.40
2019-05-06T14:21:23.040Z,5.90
2019-05-06T14:23:52.062Z,6.07
2019-05-06T14:26:27.414Z,5.60
2019-05-06T14:29:02.384Z,5.70
2019-05-06T14:31:37.913Z,5.47
2019-05-06T14:34:07.378Z,5.30
2019-05-06T14:36:36.603Z,5.90
2019-05-06T14:39:12.702Z,5.40
2019-05-06T14:41:44.827Z,5.70
2019-05-06T14:44:14.379Z,6.40
2019-05-06T14:47:03.928Z,5.33
2019-05-06T14:49:33.114Z,5.07
2019-05-06T14:52:02.843Z,5.60
2019-05-06T14:54:33.242Z,6.30
2019-05-06T14:57:12.031Z,6.23
2019-05-06T14:59:42.178Z,6.17
2019-05-06T15:02:13.250Z,5.63
2019-05-06T15:04:43.489Z,6.63
2019-05-06T15:07:13.114Z,6.10
2019-05-06T15:09:55.870Z,7.03
2019-05-06T15:12:13.462Z,6.80
2019-05-06T15:14:42.739Z,6.37
2019-05-06T15:17:14.198Z,5.50
2019-05-06T15:19:43.125Z,6.00
2019-05-06T15:22:13.094Z,6.50
2019-05-06T15:24:42.823Z,6.93
2019-05-06T15:27:12.153Z,6.07
2019-05-06T15:29:42.945Z,5.70
2019-05-06T15:32:43.506Z,5.50
2019-05-06T15:35:28.201Z,5.73
2019-05-06T15:38:03.055Z,6.70
2019-05-06T15:40:36.409Z,6.13
2019-05-06T15:43:02.918Z,6.20
2019-05-06T15:45:32.547Z,5.90
2019-05-06T15:48:02.674Z,6.00
2019-05-06T15:50:32.942Z,6.37
2019-05-06T15:53:02.117Z,5.70
2019-05-06T15:55:32.678Z,6.00
2019-05-06T15:58:03.430Z,5.37
2019-05-06T16:00:33.319Z,7.03
2019-05-06T16:03:02.487Z,6.67
2019-05-06T16:05:34.308Z,6.67
2019-05-06T16:08:03.016Z,6.43
2019-05-06T16:10:37.949Z,6.50
2019-05-06T16:13:03.193Z,6.40
2019-05-06T16:15:33.584Z,6.77
2019-05-06T16:18:04.441Z,6.60
2019-05-06T16:20:33.887Z,6.23
2019-05-06T16:23:22.928Z,5.90
2019-05-06T16:25:52.437Z,7.17
2019-05-06T16:28:22.477Z,6.53
2019-05-06T16:30:53.508Z,6.63
2019-05-06T16:33:25.238Z,6.73
2019-05-06T16:35:54.400Z,6.63
2019-05-06T16:38:23.591Z,6.80
2019-05-06T16:41:02.157Z,7.17
2019-05-06T16:43:23.995Z,5.70
2019-05-06T16:45:53.439Z,7.57
2019-05-06T16:48:22.731Z,6.70
2019-05-06T16:50:51.878Z,6.47
2019-05-06T16:53:22.992Z,6.10
2019-05-06T16:56:17.275Z,6.43
2019-05-06T16:58:52.395Z,5.97
2019-05-06T17:01:22.100Z,6.37
2019-05-06T17:03:57.258Z,6.30
2019-05-06T17:06:29.141Z,6.63
2019-05-06T17:08:58.422Z,6.03
2019-05-06T17:11:31.231Z,5.97
2019-05-06T17:13:58.615Z,6.30
2019-05-06T17:16:28.056Z,5.90
2019-05-06T17:18:57.333Z,5.43
2019-05-06T17:21:26.419Z,6.10
2019-05-06T17:23:55.561Z,7.00
2019-05-06T17:26:24.678Z,5.87
2019-05-06T17:29:19.044Z,6.20
2019-05-06T17:32:06.245Z,7.23
2019-05-06T17:34:38.661Z,5.30
2019-05-06T17:37:14.143Z,5.97
2019-05-06T17:39:43.510Z,5.83
2019-05-06T17:42:14.074Z,4.97
2019-05-06T17:44:43.334Z,5.90
2019-05-06T17:47:20.132Z,4.83
2019-05-06T17:49:49.259Z,6.07
2019-05-06T17:52:22.314Z,5.70
2019-05-06T17:54:52.819Z,5.27
2019-05-06T17:57:22.608Z,6.10
2019-05-06T17:59:52.811Z,6.03
2019-05-06T18:02:23.576Z,6.20
2019-05-06T18:04:53.399Z,6.60
2019-05-06T18:07:22.726Z,5.53
2019-05-06T18:09:52.320Z,5.97
2019-05-06T18:12:23.155Z,5.87
2019-05-06T18:14:53.349Z,4.70
2019-05-06T18:17:22.722Z,6.57
2019-05-06T18:19:52.293Z,5.73
2019-05-06T18:22:22.698Z,5.70
2019-05-06T18:24:52.583Z,4.93
2019-05-06T18:27:22.639Z,5.43
2019-05-06T18:29:53.284Z,5.00
2019-05-06T18:32:23.361Z,5.40
2019-05-06T18:34:53.052Z,5.63
2019-05-06T18:37:23.382Z,4.70
2019-05-06T18:39:53.153Z,4.87
2019-05-06T18:42:23.685Z,6.57
2019-05-06T18:44:52.984Z,5.33
2019-05-06T18:47:22.082Z,6.07
2019-05-06T18:49:52.373Z,5.60
2019-05-06T18:52:22.845Z,6.10
2019-05-06T18:54:52.531Z,6.47
2019-05-06T18:57:22.623Z,6.53
2019-05-06T18:59:53.345Z,6.00
2019-05-06T19:02:23.099Z,6.90
2019-05-06T19:04:57.189Z,6.73
2019-05-06T19:07:26.320Z,5.70
2019-05-06T19:10:17.418Z,6.33
2019-05-06T19:12:46.623Z,8.00
2019-05-06T19:15:15.731Z,7.80
2019-05-06T19:17:44.887Z,7.80
2019-05-06T19:20:14.156Z,7.20
2019-05-06T19:22:43.596Z,7.73
2019-05-06T19:25:14.643Z,8.33
2019-05-06T19:27:44.573Z,7.30
2019-05-06T19:30:13.903Z,7.30
2019-05-06T19:32:45.360Z,6.13
2019-05-06T19:35:14.131Z,7.40
2019-05-06T19:37:43.393Z,7.37
2019-05-06T19:40:12.815Z,6.80
2019-05-06T19:42:49.425Z,6.40
2019-05-06T19:45:13.077Z,5.83
2019-05-06T19:47:42.626Z,6.30
2019-05-06T19:50:11.940Z,6.23
2019-05-06T19:52:42.169Z,6.90
2019-05-06T19:55:12.439Z,6.83
2019-05-06T19:57:43.138Z,7.50
2019-05-06T20:00:12.733Z,7.70
2019-05-06T20:02:42.952Z,8.33
2019-05-06T20:05:20.266Z,9.10
2019-05-06T20:08:04.261Z,7.53
2019-05-06T20:11:07.391Z,6.50
2019-05-06T20:13:36.605Z,6.77
2019-05-06T20:16:05.935Z,8.00
2019-05-06T20:18:35.206Z,6.83
2019-05-06T20:21:04.414Z,8.20
2019-05-06T20:23:33.488Z,8.27
2019-05-06T20:26:02.943Z,7.87
2019-05-06T20:28:32.329Z,7.70
2019-05-06T20:31:02.458Z,9.20
2019-05-06T20:33:32.667Z,9.20
2019-05-06T20:36:01.992Z,7.87
2019-05-06T20:38:33.474Z,6.70
2019-05-06T20:41:02.999Z,8.13
2019-05-06T20:43:32.966Z,8.07
2019-05-06T20:46:02.900Z,7.37
2019-05-06T20:48:32.540Z,8.10
2019-05-06T20:51:03.585Z,8.73
2019-05-06T20:53:33.270Z,8.30
2019-05-06T20:56:02.869Z,7.80
2019-05-06T20:58:31.973Z,9.00
2019-05-06T21:01:03.026Z,9.27
2019-05-06T21:03:32.766Z,8.90
2019-05-06T21:06:02.204Z,9.40
2019-05-06T21:08:32.794Z,10.27
2019-05-06T21:11:03.937Z,9.93
2019-05-06T21:13:35.454Z,8.90
2019-05-06T21:16:03.885Z,10.53
2019-05-06T21:18:33.164Z,10.03
2019-05-06T21:21:02.295Z,9.40
2019-05-06T21:23:32.132Z,9.57
2019-05-06T21:26:03.301Z,11.27
2019-05-06T21:28:32.476Z,12.77
2019-05-06T21:31:03.011Z,10.57
2019-05-06T21:33:32.992Z,10.60
2019-05-06T21:36:03.022Z,10.77
2019-05-06T21:38:32.684Z,10.57
2019-05-06T21:41:02.167Z,10.80
2019-05-06T21:43:43.789Z,11.57
2019-05-06T21:46:03.150Z,10.43
2019-05-06T21:48:33.721Z,11.33
2019-05-06T21:51:03.032Z,11.43
2019-05-06T21:53:32.632Z,10.93
2019-05-06T21:56:02.315Z,10.60
2019-05-06T21:58:31.383Z,11.80
2019-05-06T22:01:06.191Z,10.83
2019-05-06T22:03:35.492Z,10.57
2019-05-06T22:06:04.960Z,9.73
2019-05-06T22:08:34.174Z,10.27
2019-05-06T22:11:03.254Z,10.07
2019-05-06T22:13:33.467Z,10.20
2019-05-06T22:16:04.874Z,10.67
2019-05-06T22:18:35.864Z,9.17
2019-05-06T22:21:19.155Z,9.53
2019-05-06T22:24:13.026Z,9.53
2019-05-06T22:26:43.118Z,10.17
2019-05-06T22:29:12.911Z,10.17
2019-05-06T22:31:42.377Z,10.07
2019-05-06T22:34:13.448Z,8.90
2019-05-06T22:36:42.342Z,9.77
2019-05-06T22:39:12.019Z,9.83
2019-05-06T22:41:43.906Z,9.23
2019-05-06T22:44:14.193Z,8.47
2019-05-06T22:46:43.193Z,9.13
2019-05-06T22:49:13.310Z,9.40
2019-05-06T22:51:42.657Z,10.10
2019-05-06T22:54:11.742Z,8.97
2019-05-06T22:56:40.883Z,8.80
2019-05-06T22:59:10.131Z,9.97
2019-05-06T23:02:02.319Z,9.90
2019-05-06T23:04:33.600Z,9.17
2019-05-06T23:07:04.776Z,9.80
2019-05-06T23:09:33.572Z,8.67
2019-05-06T23:12:04.818Z,9.90
2019-05-06T23:14:36.967Z,9.43
2019-05-06T23:17:04.601Z,10.07
2019-05-06T23:19:34.060Z,8.47
2019-05-06T23:22:04.326Z,11.00
2019-05-06T23:24:33.535Z,10.23
2019-05-06T23:27:02.918Z,10.07
2019-05-06T23:29:32.036Z,10.00
2019-05-06T23:32:02.999Z,8.30
2019-05-06T23:34:32.555Z,9.83
2019-05-06T23:37:29.013Z,8.47
2019-05-06T23:40:39.931Z,10.27
2019-05-06T23:43:45.063Z,9.87
2019-05-06T23:46:52.301Z,10.20
2019-05-06T23:49:57.495Z,10.60
2019-05-06T23:53:03.146Z,9.77
2019-05-06T23:56:08.130Z,10.73
2019-05-06T23:58:37.205Z,11.20
